createdAt,value
2023-02-27T00:02:24.862Z,29.80
2023-02-27T00:04:54.874Z,28.80
2023-02-27T00:07:26.281Z,29.70
2023-02-27T00:09:57.546Z,30.50
2023-02-27T00:12:26.016Z,32.10
2023-02-27T00:14:54.357Z,32.20
2023-02-27T00:17:29.912Z,31.20
2023-02-27T00:19:58.241Z,30.30
2023-02-27T00:22:26.892Z,31.20
2023-02-27T00:24:58.676Z,31.20
2023-02-27T00:27:27.888Z,33.30
2023-02-27T00:29:56.476Z,32.50
2023-02-27T00:32:25.058Z,34.20
2023-02-27T00:34:53.616Z,33.50
2023-02-27T00:37:21.905Z,31.70
2023-02-27T00:39:51.294Z,33.20
2023-02-27T00:42:19.626Z,31.80
2023-02-27T00:44:48.173Z,37.20
2023-02-27T00:47:16.804Z,40.20
2023-02-27T00:49:46.900Z,38.30
2023-02-27T00:52:15.240Z,36.70
2023-02-27T00:54:43.599Z,38.60
2023-02-27T00:57:12.085Z,39.80
2023-02-27T00:59:48.762Z,36.60
2023-02-27T01:02:17.366Z,37.30
2023-02-27T01:04:47.737Z,41.20
2023-02-27T01:07:16.459Z,41.60
2023-02-27T01:09:45.005Z,42.00
2023-02-27T01:12:13.787Z,43.40
2023-02-27T01:14:44.034Z,42.40
2023-02-27T01:17:12.460Z,42.50
2023-02-27T01:19:44.275Z,46.40
2023-02-27T01:22:12.670Z,46.60
2023-02-27T01:24:41.396Z,46.30
2023-02-27T01:27:10.012Z,51.00
2023-02-27T01:29:42.310Z,53.70
2023-02-27T01:32:10.952Z,58.10
2023-02-27T01:34:39.975Z,68.30
2023-02-27T01:37:08.577Z,69.30
2023-02-27T01:39:37.397Z,66.90
2023-02-27T01:42:17.745Z,65.50
2023-02-27T01:45:12.139Z,68.60
2023-02-27T01:47:45.337Z,63.60
2023-02-27T01:50:13.982Z,61.60
2023-02-27T01:52:44.877Z,60.40
2023-02-27T01:55:13.916Z,59.70
2023-02-27T01:57:43.643Z,55.00
2023-02-27T02:00:13.048Z,55.60
2023-02-27T02:02:50.209Z,49.50
2023-02-27T02:07:50.328Z,50.40
2023-02-27T02:10:18.906Z,51.60
2023-02-27T02:12:47.309Z,49.80
2023-02-27T02:15:17.199Z,51.10
2023-02-27T02:18:35.819Z,49.40
2023-02-27T02:22:02.215Z,46.60
2023-02-27T02:25:14.620Z,45.30
2023-02-27T02:28:25.489Z,43.40
2023-02-27T02:31:25.049Z,46.10
2023-02-27T02:34:00.452Z,46.30
2023-02-27T02:36:40.849Z,43.80
2023-02-27T02:39:26.821Z,44.00
2023-02-27T02:42:11.645Z,46.10
2023-02-27T02:45:13.085Z,42.70
2023-02-27T02:48:04.994Z,43.10
2023-02-27T02:51:04.825Z,47.00
2023-02-27T02:53:50.008Z,49.20
2023-02-27T02:56:23.887Z,51.50
2023-02-27T02:59:01.876Z,47.00
2023-02-27T03:01:35.529Z,43.90
2023-02-27T03:04:13.968Z,39.80
2023-02-27T03:07:27.798Z,35.20
2023-02-27T03:10:00.935Z,36.80
2023-02-27T03:12:30.104Z,37.10
2023-02-27T03:15:11.696Z,34.30
2023-02-27T03:17:48.910Z,31.80
2023-02-27T03:20:32.876Z,32.40
2023-02-27T03:25:32.806Z,33.40
2023-02-27T03:28:04.666Z,34.10
2023-02-27T03:30:38.447Z,30.30
2023-02-27T03:33:36.110Z,27.30
2023-02-27T03:36:29.259Z,30.30
2023-02-27T03:39:07.589Z,31.10
2023-02-27T03:41:42.370Z,26.80
2023-02-27T03:44:31.208Z,26.10
2023-02-27T03:46:59.874Z,27.40
2023-02-27T03:49:28.171Z,27.20
2023-02-27T03:51:57.006Z,28.70
2023-02-27T03:54:32.054Z,25.80
2023-02-27T03:57:05.377Z,23.10
2023-02-27T03:59:35.645Z,24.90
2023-02-27T04:02:04.274Z,26.10
2023-02-27T04:04:33.986Z,26.90
2023-02-27T04:07:26.643Z,28.10
2023-02-27T04:09:59.213Z,27.10
2023-02-27T04:12:36.667Z,25.70
2023-02-27T04:15:42.857Z,27.50
2023-02-27T04:18:37.317Z,26.20
2023-02-27T04:24:00.256Z,26.40
2023-02-27T04:26:37.989Z,27.60
2023-02-27T04:29:14.140Z,26.90
2023-02-27T04:32:03.160Z,25.40
2023-02-27T04:34:38.577Z,28.20
2023-02-27T04:37:21.567Z,26.60
2023-02-27T04:40:14.969Z,28.80
2023-02-27T04:42:46.576Z,23.20
2023-02-27T04:45:17.260Z,29.60
2023-02-27T04:47:55.145Z,27.30
2023-02-27T04:50:33.692Z,25.30
2023-02-27T04:53:33.977Z,29.60
2023-02-27T04:56:08.696Z,28.60
2023-02-27T04:58:42.717Z,24.40
2023-02-27T05:01:16.857Z,22.00
2023-02-27T05:03:48.412Z,21.30
2023-02-27T05:06:17.833Z,22.10
2023-02-27T05:09:20.508Z,22.80
2023-02-27T05:12:15.080Z,22.40
2023-02-27T05:14:56.657Z,24.00
2023-02-27T05:17:34.305Z,23.00
2023-02-27T05:20:02.919Z,22.80
2023-02-27T05:22:36.907Z,25.30
2023-02-27T05:25:29.085Z,23.50
2023-02-27T05:28:03.175Z,23.20
2023-02-27T05:30:37.273Z,21.90
2023-02-27T05:33:27.237Z,22.90
2023-02-27T05:36:21.954Z,20.00
2023-02-27T05:38:51.994Z,20.00
2023-02-27T05:41:25.865Z,20.10
2023-02-27T05:43:59.116Z,20.10
2023-02-27T05:46:30.645Z,22.20
2023-02-27T05:49:02.226Z,20.20
2023-02-27T05:51:32.993Z,22.90
2023-02-27T05:54:07.682Z,19.80
2023-02-27T05:56:36.804Z,20.90
2023-02-27T05:59:17.938Z,20.00
2023-02-27T06:01:46.561Z,20.40
2023-02-27T06:04:15.598Z,22.00
2023-02-27T06:06:44.482Z,21.80
2023-02-27T06:09:12.825Z,21.70
2023-02-27T06:11:41.171Z,21.60
2023-02-27T06:14:09.590Z,21.60
2023-02-27T06:16:39.264Z,22.20
2023-02-27T06:19:09.481Z,20.20
2023-02-27T06:21:37.917Z,19.70
2023-02-27T06:24:06.916Z,20.30
2023-02-27T06:26:36.462Z,20.10
2023-02-27T06:29:09.692Z,18.70
2023-02-27T06:31:38.144Z,20.60
2023-02-27T06:34:06.501Z,21.80
2023-02-27T06:36:39.251Z,21.30
2023-02-27T06:39:08.273Z,20.80
2023-02-27T06:41:39.553Z,22.50
2023-02-27T06:44:08.197Z,22.00
2023-02-27T06:46:36.724Z,20.00
2023-02-27T06:49:05.379Z,18.80
2023-02-27T06:51:35.007Z,18.60
2023-02-27T06:54:03.657Z,20.20
2023-02-27T06:56:32.364Z,21.30
2023-02-27T06:59:00.824Z,20.10
2023-02-27T07:01:29.504Z,18.90
2023-02-27T07:03:57.851Z,21.60
2023-02-27T07:07:33.158Z,18.80
2023-02-27T07:09:19.089Z,21.80
2023-02-27T07:11:47.530Z,19.10
2023-02-27T07:14:18.709Z,18.60
2023-02-27T07:16:51.054Z,19.40
2023-02-27T07:19:19.779Z,19.80
2023-02-27T07:21:48.480Z,15.50
2023-02-27T07:24:16.966Z,18.20
2023-02-27T07:26:45.759Z,12.10
2023-02-27T07:29:15.185Z,14.90
2023-02-27T07:31:43.509Z,15.90
2023-02-27T07:34:13.337Z,15.40
2023-02-27T07:36:41.936Z,13.50
2023-02-27T07:39:12.241Z,15.30
2023-02-27T07:41:40.866Z,15.10
2023-02-27T07:44:11.613Z,15.80
2023-02-27T07:46:40.054Z,13.80
2023-02-27T07:49:08.826Z,15.80
2023-02-27T07:51:37.538Z,14.40
2023-02-27T07:54:06.093Z,14.70
2023-02-27T07:56:37.226Z,13.90
2023-02-27T07:59:06.745Z,15.80
2023-02-27T08:01:36.478Z,13.80
2023-02-27T08:04:09.398Z,15.00
2023-02-27T08:06:38.758Z,13.80
2023-02-27T08:09:07.636Z,13.00
2023-02-27T08:11:38.622Z,14.60
2023-02-27T08:14:07.539Z,14.10
2023-02-27T08:16:40.705Z,13.90
2023-02-27T08:19:09.277Z,14.20
2023-02-27T08:21:37.889Z,12.30
2023-02-27T08:24:07.047Z,12.10
2023-02-27T08:26:35.663Z,12.50
2023-02-27T08:29:04.881Z,13.30
2023-02-27T08:31:33.452Z,12.50
2023-02-27T08:34:09.832Z,13.20
2023-02-27T08:36:40.080Z,12.60
2023-02-27T08:39:08.746Z,13.10
2023-02-27T08:41:39.256Z,13.30
2023-02-27T08:44:07.718Z,13.40
2023-02-27T08:46:36.137Z,14.00
2023-02-27T08:49:04.738Z,12.10
2023-02-27T08:51:33.488Z,11.50
2023-02-27T08:54:02.221Z,12.40
2023-02-27T08:56:30.886Z,13.10
2023-02-27T08:58:59.265Z,12.80
2023-02-27T09:01:31.758Z,12.10
2023-02-27T09:04:03.740Z,13.20
2023-02-27T09:06:37.935Z,13.50
2023-02-27T09:09:06.832Z,13.10
2023-02-27T09:11:36.886Z,12.10
2023-02-27T09:14:07.246Z,11.90
2023-02-27T09:16:39.376Z,12.50
2023-02-27T09:19:07.936Z,12.80
2023-02-27T09:21:37.578Z,11.90
2023-02-27T09:24:18.737Z,12.30
2023-02-27T09:26:49.240Z,11.40
2023-02-27T09:29:18.457Z,10.90
2023-02-27T09:31:48.047Z,12.30
2023-02-27T09:34:16.567Z,11.20
2023-02-27T09:36:45.732Z,11.00
2023-02-27T09:39:14.117Z,11.90
2023-02-27T09:41:48.808Z,10.90
2023-02-27T09:44:46.815Z,11.50
2023-02-27T09:47:20.623Z,10.70
2023-02-27T09:52:27.782Z,14.80
2023-02-27T09:54:56.267Z,13.80
2023-02-27T09:57:47.581Z,12.00
2023-02-27T10:00:44.600Z,11.20
2023-02-27T10:03:36.729Z,13.30
2023-02-27T10:06:20.068Z,11.00
2023-02-27T10:08:57.677Z,11.00
2023-02-27T10:11:37.963Z,10.40
2023-02-27T10:14:16.447Z,10.70
2023-02-27T10:16:45.409Z,10.20
2023-02-27T10:19:15.478Z,10.30
2023-02-27T10:21:45.213Z,10.40
2023-02-27T10:24:37.505Z,9.90
2023-02-27T10:27:07.425Z,9.20
2023-02-27T10:29:37.008Z,10.80
2023-02-27T10:32:21.393Z,11.30
2023-02-27T10:34:55.683Z,11.10
2023-02-27T10:37:24.473Z,11.30
2023-02-27T10:39:57.898Z,9.20
2023-02-27T10:42:28.114Z,11.20
2023-02-27T10:44:57.476Z,11.30
2023-02-27T10:47:26.074Z,11.40
2023-02-27T10:49:54.811Z,11.30
2023-02-27T10:52:23.280Z,11.30
2023-02-27T10:54:51.743Z,10.50
2023-02-27T10:57:31.361Z,11.60
2023-02-27T11:00:06.068Z,12.00
2023-02-27T11:02:42.693Z,10.70
2023-02-27T11:05:22.390Z,11.00
2023-02-27T11:07:51.221Z,10.40
2023-02-27T11:10:23.747Z,12.00
2023-02-27T11:13:21.806Z,10.50
2023-02-27T11:16:10.349Z,10.60
2023-02-27T11:18:45.607Z,11.50
2023-02-27T11:21:22.991Z,10.70
2023-02-27T11:24:01.662Z,11.10
2023-02-27T11:26:40.950Z,12.10
2023-02-27T11:29:15.268Z,11.60
2023-02-27T11:31:46.266Z,11.60
2023-02-27T11:34:20.419Z,10.90
2023-02-27T11:36:49.620Z,11.40
2023-02-27T11:39:40.864Z,12.20
2023-02-27T11:42:20.419Z,11.50
2023-02-27T11:45:03.857Z,11.50
2023-02-27T11:50:14.546Z,11.40
2023-02-27T11:52:45.364Z,11.90
2023-02-27T11:55:16.121Z,11.20
2023-02-27T11:57:46.768Z,11.20
2023-02-27T12:00:39.381Z,12.50
2023-02-27T12:03:13.858Z,11.20
2023-02-27T12:05:54.677Z,10.80
2023-02-27T12:09:03.639Z,11.80
2023-02-27T12:11:44.002Z,12.80
2023-02-27T12:14:17.881Z,11.10
2023-02-27T12:19:42.921Z,12.40
2023-02-27T12:22:31.092Z,11.80
2023-02-27T12:25:08.253Z,12.20
2023-02-27T12:27:55.932Z,11.60
2023-02-27T12:30:27.047Z,11.40
2023-02-27T12:33:13.809Z,12.00
2023-02-27T12:35:43.365Z,11.90
2023-02-27T12:38:13.536Z,12.10
2023-02-27T12:41:07.495Z,11.50
2023-02-27T12:43:46.848Z,12.40
2023-02-27T12:46:50.980Z,11.90
2023-02-27T12:49:25.223Z,10.90
2023-02-27T12:52:25.683Z,12.20
2023-02-27T12:55:21.563Z,11.70
2023-02-27T12:57:59.163Z,11.50
2023-02-27T13:00:29.906Z,12.00
2023-02-27T13:03:09.428Z,14.70
2023-02-27T13:06:01.935Z,46.80
2023-02-27T13:08:49.372Z,79.70
2023-02-27T13:11:18.832Z,90.90
2023-02-27T13:14:06.413Z,65.80
2023-02-27T13:16:46.730Z,58.50
2023-02-27T13:19:25.008Z,54.10
2023-02-27T13:22:16.204Z,54.30
2023-02-27T13:24:47.613Z,49.80
2023-02-27T13:27:20.944Z,46.00
2023-02-27T13:29:55.631Z,42.50
2023-02-27T13:32:42.717Z,41.40
2023-02-27T13:35:41.955Z,39.40
2023-02-27T13:38:30.324Z,31.00
2023-02-27T13:41:21.622Z,29.40
2023-02-27T13:43:53.130Z,29.60
2023-02-27T13:46:28.786Z,30.80
2023-02-27T13:49:06.184Z,27.40
2023-02-27T13:51:53.909Z,27.10
2023-02-27T13:54:29.838Z,24.80
2023-02-27T13:57:04.938Z,23.30
2023-02-27T13:59:37.808Z,24.70
2023-02-27T14:02:09.991Z,25.80
2023-02-27T14:04:45.760Z,27.40
2023-02-27T14:07:18.898Z,28.10
2023-02-27T14:09:52.366Z,24.80
2023-02-27T14:12:44.676Z,24.40
2023-02-27T14:15:18.555Z,28.10
2023-02-27T14:17:57.074Z,25.80
2023-02-27T14:20:34.266Z,30.10
2023-02-27T14:23:15.522Z,35.10
2023-02-27T14:25:57.294Z,39.50
2023-02-27T14:28:38.032Z,45.30
2023-02-27T14:31:13.765Z,56.50
2023-02-27T14:33:47.442Z,57.30
2023-02-27T14:36:20.595Z,50.40
2023-02-27T14:38:50.033Z,68.90
2023-02-27T14:41:36.806Z,72.50
2023-02-27T14:44:05.368Z,76.50
2023-02-27T14:46:39.021Z,70.80
2023-02-27T14:49:18.223Z,65.00
2023-02-27T14:51:46.802Z,60.20
2023-02-27T14:54:26.096Z,60.40
2023-02-27T14:56:57.996Z,58.10
2023-02-27T14:59:29.742Z,55.70
2023-02-27T15:01:58.998Z,59.00
2023-02-27T15:04:28.984Z,61.30
2023-02-27T15:06:57.972Z,61.50
2023-02-27T15:09:40.889Z,60.70
2023-02-27T15:12:10.453Z,56.60
2023-02-27T15:14:39.814Z,56.70
2023-02-27T15:17:38.538Z,55.30
2023-02-27T15:20:32.876Z,55.40
2023-02-27T15:23:04.429Z,51.80
2023-02-27T15:25:38.787Z,52.20
2023-02-27T15:28:22.076Z,54.50
2023-02-27T15:30:51.218Z,57.30
2023-02-27T15:33:22.022Z,51.00
2023-02-27T15:35:50.746Z,49.00
2023-02-27T15:38:31.020Z,48.10
2023-02-27T15:41:00.163Z,47.30
2023-02-27T15:43:28.940Z,43.50
2023-02-27T15:45:58.542Z,44.10
2023-02-27T15:48:27.141Z,45.30
2023-02-27T15:50:58.338Z,45.10
2023-02-27T15:53:28.264Z,41.90
2023-02-27T15:55:58.212Z,42.60
2023-02-27T15:58:31.344Z,42.80
2023-02-27T16:01:02.100Z,44.40
2023-02-27T16:03:34.985Z,47.10
2023-02-27T16:06:04.261Z,47.80
2023-02-27T16:08:33.112Z,58.70
2023-02-27T16:11:04.730Z,67.30
2023-02-27T16:13:42.340Z,62.40
2023-02-27T16:16:35.524Z,63.60
2023-02-27T16:19:27.362Z,60.00
2023-02-27T16:22:07.133Z,46.70
2023-02-27T16:24:37.236Z,49.40
2023-02-27T16:27:06.436Z,56.50
2023-02-27T16:29:40.492Z,85.60
2023-02-27T16:32:23.976Z,58.80
2023-02-27T16:34:53.106Z,62.30
2023-02-27T16:37:48.268Z,68.40
2023-02-27T16:40:18.700Z,74.40
2023-02-27T16:42:47.362Z,65.60
2023-02-27T16:45:24.104Z,68.30
2023-02-27T16:47:54.428Z,73.10
2023-02-27T16:50:38.310Z,64.00
2023-02-27T16:55:39.945Z,50.90
2023-02-27T16:58:13.780Z,52.00
2023-02-27T17:00:43.234Z,53.00
2023-02-27T17:03:11.732Z,48.00
2023-02-27T17:05:40.215Z,45.40
2023-02-27T17:08:10.391Z,45.40
2023-02-27T17:10:38.878Z,45.20
2023-02-27T17:13:07.459Z,42.20
2023-02-27T17:15:38.248Z,45.40
2023-02-27T17:18:09.070Z,43.90
2023-02-27T17:20:37.912Z,43.30
2023-02-27T17:23:06.446Z,40.10
2023-02-27T17:25:34.871Z,45.40
2023-02-27T17:28:03.656Z,44.00
2023-02-27T17:30:33.278Z,44.00
2023-02-27T17:33:04.175Z,38.70
2023-02-27T17:35:32.800Z,34.30
2023-02-27T17:38:01.237Z,33.80
2023-02-27T17:40:31.754Z,31.40
2023-02-27T17:43:00.729Z,28.30
2023-02-27T17:45:30.210Z,27.20
2023-02-27T17:47:58.795Z,29.80
2023-02-27T17:50:27.585Z,26.10
2023-02-27T17:52:56.193Z,27.20
2023-02-27T17:55:25.211Z,24.70
2023-02-27T17:57:54.435Z,27.90
2023-02-27T18:00:24.005Z,24.00
2023-02-27T18:02:54.008Z,25.80
2023-02-27T18:05:22.724Z,26.00
2023-02-27T18:07:51.239Z,24.80
2023-02-27T18:10:19.741Z,25.70
2023-02-27T18:12:48.325Z,25.40
2023-02-27T18:15:19.804Z,30.30
2023-02-27T18:17:48.781Z,31.90
2023-02-27T18:20:17.162Z,50.80
2023-02-27T18:22:45.754Z,87.60
2023-02-27T18:25:16.389Z,97.20
2023-02-27T18:27:45.086Z,128.00
2023-02-27T18:30:13.641Z,134.50
2023-02-27T18:32:46.803Z,84.60
2023-02-27T18:35:16.011Z,64.20
2023-02-27T18:37:44.451Z,78.10
2023-02-27T18:40:15.336Z,78.50
2023-02-27T18:42:48.826Z,88.80
2023-02-27T18:45:18.982Z,92.40
2023-02-27T18:47:47.442Z,135.70
2023-02-27T18:50:16.130Z,211.90
2023-02-27T18:52:47.316Z,193.70
2023-02-27T18:55:17.760Z,157.10
2023-02-27T18:57:51.079Z,84.30
2023-02-27T19:00:21.909Z,74.70
2023-02-27T19:02:50.512Z,45.50
2023-02-27T19:05:18.917Z,42.40
2023-02-27T19:07:49.434Z,73.70
2023-02-27T19:10:17.841Z,110.10
2023-02-27T19:12:46.524Z,142.80
2023-02-27T19:15:14.852Z,103.70
2023-02-27T19:17:43.257Z,81.60
2023-02-27T19:20:16.638Z,50.50
2023-02-27T19:25:13.866Z,56.90
2023-02-27T19:27:44.948Z,56.90
2023-02-27T19:30:14.263Z,58.40
2023-02-27T19:32:42.880Z,49.80
2023-02-27T19:35:15.355Z,64.30
2023-02-27T19:37:48.132Z,60.80
2023-02-27T19:40:16.673Z,55.30
2023-02-27T19:42:45.142Z,69.20
2023-02-27T19:45:13.541Z,68.60
2023-02-27T19:47:44.381Z,63.80
2023-02-27T19:50:13.087Z,67.50
2023-02-27T19:52:42.756Z,87.90
2023-02-27T19:55:11.418Z,57.60
2023-02-27T19:57:41.776Z,64.70
2023-02-27T20:00:13.444Z,59.90
2023-02-27T20:02:41.936Z,62.90
2023-02-27T20:05:12.270Z,59.30
2023-02-27T20:07:42.563Z,51.90
2023-02-27T20:10:16.121Z,47.40
2023-02-27T20:12:44.755Z,54.70
2023-02-27T20:15:15.665Z,57.40
2023-02-27T20:17:46.350Z,50.80
2023-02-27T20:20:14.793Z,47.80
2023-02-27T20:22:45.825Z,47.60
2023-02-27T20:25:14.317Z,42.10
2023-02-27T20:27:42.803Z,39.00
2023-02-27T20:30:12.262Z,42.30
2023-02-27T20:32:46.376Z,48.80
2023-02-27T20:35:15.759Z,46.40
2023-02-27T20:37:44.513Z,47.70
2023-02-27T20:40:13.195Z,43.10
2023-02-27T20:42:41.925Z,40.50
2023-02-27T20:45:10.616Z,42.30
2023-02-27T20:47:39.458Z,36.50
2023-02-27T20:50:08.327Z,38.00
2023-02-27T20:52:37.125Z,47.70
2023-02-27T20:55:07.258Z,54.00
2023-02-27T20:57:36.878Z,42.10
2023-02-27T21:00:06.199Z,42.90
2023-02-27T21:02:36.429Z,36.30
2023-02-27T21:05:05.743Z,27.10
2023-02-27T21:07:35.012Z,26.10
2023-02-27T21:10:03.712Z,36.70
2023-02-27T21:12:33.644Z,29.20
2023-02-27T21:15:02.836Z,31.80
2023-02-27T21:17:32.363Z,29.10
2023-02-27T21:20:06.572Z,38.20
2023-02-27T21:22:36.297Z,41.50
2023-02-27T21:25:04.957Z,35.50
2023-02-27T21:27:33.702Z,51.20
2023-02-27T21:30:02.175Z,49.50
2023-02-27T21:32:31.870Z,49.80
2023-02-27T21:35:00.285Z,49.30
2023-02-27T21:37:28.697Z,51.60
2023-02-27T21:39:57.467Z,31.60
2023-02-27T21:42:25.958Z,27.40
2023-02-27T21:44:54.853Z,43.90
2023-02-27T21:47:23.760Z,58.50
2023-02-27T21:49:52.384Z,56.50
2023-02-27T21:52:20.728Z,63.00
2023-02-27T21:54:50.258Z,46.10
2023-02-27T21:57:21.761Z,48.40
2023-02-27T21:59:50.182Z,38.70
2023-02-27T22:02:18.918Z,34.50
2023-02-27T22:04:47.440Z,40.20
2023-02-27T22:07:16.335Z,32.50
2023-02-27T22:09:45.222Z,36.90
2023-02-27T22:12:15.845Z,36.70
2023-02-27T22:14:44.619Z,28.10
2023-02-27T22:17:13.115Z,40.80
2023-02-27T22:19:42.949Z,48.80
2023-02-27T22:22:11.782Z,54.90
2023-02-27T22:24:42.076Z,45.50
2023-02-27T22:27:11.160Z,70.80
2023-02-27T22:29:42.242Z,56.50
2023-02-27T22:32:11.594Z,47.20
2023-02-27T22:34:44.968Z,55.10
2023-02-27T22:37:16.297Z,43.20
2023-02-27T22:39:44.670Z,30.60
2023-02-27T22:42:14.488Z,31.80
2023-02-27T22:44:42.874Z,36.30
2023-02-27T22:47:11.168Z,36.10
2023-02-27T22:49:40.053Z,44.40
2023-02-27T22:52:08.413Z,41.50
2023-02-27T22:54:36.846Z,38.20
2023-02-27T22:57:06.338Z,33.90
2023-02-27T22:59:36.952Z,34.40
2023-02-27T23:02:07.506Z,30.10
2023-02-27T23:04:35.899Z,28.70
2023-02-27T23:07:04.450Z,44.70
2023-02-27T23:09:32.944Z,55.30
2023-02-27T23:12:03.943Z,45.20
2023-02-27T23:14:33.980Z,37.50
2023-02-27T23:17:02.481Z,34.00
2023-02-27T23:19:32.521Z,41.60
2023-02-27T23:22:07.077Z,60.90
2023-02-27T23:24:38.268Z,49.20
2023-02-27T23:27:23.378Z,40.60
2023-02-27T23:29:53.731Z,36.50
2023-02-27T23:32:22.753Z,32.20
2023-02-27T23:34:51.153Z,28.60
2023-02-27T23:37:19.535Z,27.40
2023-02-27T23:39:48.156Z,31.10
2023-02-27T23:42:35.390Z,55.90
2023-02-27T23:45:23.004Z,60.00
2023-02-27T23:47:55.746Z,56.20
2023-02-27T23:50:26.363Z,59.90
2023-02-27T23:52:56.480Z,55.50
2023-02-27T23:55:25.292Z,50.00
2023-02-27T23:57:54.740Z,52.70
